ADDS - METARS form results

Aviation Digital Data Service (ADDS)

Output produced by METARs form (2151 UTC 19 June 2019)
found at http://aviationweather.gov/metar/data/
 
METAR text: KPNT 192135Z AUTO 00000KT 1 1/4SM +RA SCT020 BKN031 OVC040 22/22 A2968 RMK AO2 VIS 1/2V4 P0019 T02210218
Conditions at: KPNT (PONTIAC , IL, US) observed 2135 UTC 19 June 2019
Temperature: 22.1°C (72°F)
Dewpoint: 21.8°C (71°F) [RH = 98%]
Pressure (altimeter): 29.68 inches Hg (1005.2 mb)
Winds: calm
Visibility: 1.25 miles (2.01 km)
Ceiling: 3100 feet AGL
Clouds: scattered clouds at 2000 feet AGL
broken clouds at 3100 feet AGL
overcast cloud deck at 4000 feet AGL
Weather: +RA  (heavy rain)

METAR text: KPNT 192115Z AUTO 00000KT 5SM +RA BKN040 OVC046 23/21 A2966 RMK AO2 P0001 T02330210
Conditions at: KPNT (PONTIAC , IL, US) observed 2115 UTC 19 June 2019
Temperature: 23.3°C (74°F)
Dewpoint: 21.0°C (70°F) [RH = 87%]
Pressure (altimeter): 29.66 inches Hg (1004.5 mb)
Winds: calm
Visibility: 5 miles ( 8 km)
Ceiling: 4000 feet AGL
Clouds: broken clouds at 4000 feet AGL
overcast cloud deck at 4600 feet AGL
Weather: +RA  (heavy rain)

METAR text: KPNT 192055Z AUTO 00000KT 10SM -RA BKN040 OVC048 24/21 A2966 RMK AO2 T02380205
Conditions at: KPNT (PONTIAC , IL, US) observed 2055 UTC 19 June 2019
Temperature: 23.8°C (75°F)
Dewpoint: 20.5°C (69°F) [RH = 82%]
Pressure (altimeter): 29.66 inches Hg (1004.5 mb)
Winds: calm
Visibility: 10 or more miles (16+ km)
Ceiling: 4000 feet AGL
Clouds: broken clouds at 4000 feet AGL
overcast cloud deck at 4800 feet AGL
Weather: -RA  (light rain)